Time;durP1;ratioP1;P1;durP2;ratioP2;P2;SDS_P1;SDS_P2;PMS_P1;PMS_P2;Temp;Humidity;BMP_temperature;BMP_pressure;BME280_temperature;BME280_humidity;BME280_pressure;Samples;Min_cycle;Max_cycle;Signal;HPM_P1;HPM_P2
2023/06/26 00:01:29;;;;;;;4.82;4.18;;;23.10;55.20;;;;;;5036265;28;20187;-80
2023/06/26 00:03:55;;;;;;;4.65;4.10;;;23.10;55.20;;;;;;5019122;28;20237;-81
2023/06/26 00:06:24;;;;;;;4.95;4.15;;;23.10;55.10;;;;;;5018213;28;20175;-81
2023/06/26 00:08:50;;;;;;;4.20;3.72;;;23.20;55.20;;;;;;5018605;28;20148;-81
2023/06/26 00:11:16;;;;;;;4.65;4.15;;;23.10;55.20;;;;;;5001714;28;20179;-80
2023/06/26 00:13:42;;;;;;;4.82;4.30;;;23.10;55.20;;;;;;5035731;28;20177;-83
2023/06/26 00:16:08;;;;;;;5.07;4.40;;;23.10;55.20;;;;;;5035919;28;20652;-81
2023/06/26 00:18:34;;;;;;;4.97;4.30;;;23.10;55.20;;;;;;5035647;28;20213;-82
2023/06/26 00:21:00;;;;;;;4.82;4.32;;;23.10;55.30;;;;;;5018182;28;20634;-82
2023/06/26 00:23:27;;;;;;;5.90;4.93;;;23.10;55.30;;;;;;5017789;28;20163;-81
2023/06/26 00:25:53;;;;;;;4.97;4.47;;;23.10;55.30;;;;;;5001725;28;20166;-80
2023/06/26 00:28:19;;;;;;;5.30;4.47;;;23.10;55.30;;;;;;5001389;28;20185;-81
2023/06/26 00:30:45;;;;;;;5.38;4.20;;;23.10;55.30;;;;;;5035413;28;20163;-81
2023/06/26 00:33:11;;;;;;;4.97;4.13;;;23.10;55.30;;;;;;5035564;28;20613;-81
2023/06/26 00:35:37;;;;;;;5.60;4.80;;;23.10;55.30;;;;;;5017584;28;20269;-82
2023/06/26 00:38:03;;;;;;;5.25;4.63;;;23.10;55.30;;;;;;5035212;28;20159;-82
2023/06/26 00:40:29;;;;;;;4.85;4.25;;;23.10;55.30;;;;;;5001665;28;20206;-80
2023/06/26 00:42:55;;;;;;;4.72;4.22;;;23.00;55.30;;;;;;5017538;28;20179;-81
2023/06/26 00:45:21;;;;;;;5.53;4.35;;;23.10;55.30;;;;;;5017482;28;20209;-82
2023/06/26 00:47:47;;;;;;;5.15;4.60;;;23.00;55.40;;;;;;5017755;28;20246;-80
2023/06/26 00:50:13;;;;;;;5.00;4.00;;;23.00;55.30;;;;;;5050850;28;20252;-83
2023/06/26 00:52:39;;;;;;;4.70;4.13;;;23.00;55.30;;;;;;5055136;28;20498;-82
2023/06/26 00:55:05;;;;;;;5.00;4.10;;;23.00;55.40;;;;;;5054900;28;20651;-82
2023/06/26 00:57:31;;;;;;;5.30;4.80;;;23.00;55.40;;;;;;5054785;28;20190;-80
2023/06/26 00:59:57;;;;;;;5.07;4.43;;;23.00;55.40;;;;;;5054738;28;20232;-80
2023/06/26 01:02:23;;;;;;;4.53;4.10;;;23.00;55.40;;;;;;5053651;28;20241;-82
2023/06/26 01:04:49;;;;;;;4.50;4.10;;;23.00;55.40;;;;;;5020358;28;20197;-82
2023/06/26 01:07:16;;;;;;;4.20;3.80;;;23.00;55.40;;;;;;5037036;28;20193;-80
2023/06/26 01:09:42;;;;;;;4.90;4.28;;;23.00;55.40;;;;;;5037272;28;20201;-80
2023/06/26 01:12:08;;;;;;;4.78;4.25;;;23.00;55.40;;;;;;5054659;28;20154;-80
2023/06/26 01:14:36;;;;;;;4.60;4.10;;;23.00;55.40;;;;;;5036723;28;20208;-81
2023/06/26 01:17:01;;;;;;;4.55;4.15;;;23.00;55.40;;;;;;5054734;28;20143;-82
2023/06/26 01:19:29;;;;;;;4.55;4.15;;;23.00;55.40;;;;;;5054858;28;20172;-81
2023/06/26 01:22:03;;;;;;;4.70;4.15;;;23.00;55.50;;;;;;5036611;28;20265;-81
2023/06/26 01:24:33;;;;;;;4.72;3.90;;;23.00;55.40;;;;;;5054269;28;20159;-82
2023/06/26 01:26:59;;;;;;;4.55;4.05;;;22.90;55.40;;;;;;5036672;28;20158;-81
2023/06/26 01:29:25;;;;;;;4.95;4.25;;;23.00;55.50;;;;;;5036377;28;20257;-80
2023/06/26 01:31:51;;;;;;;4.90;4.28;;;23.00;55.40;;;;;;5036434;28;20164;-81
2023/06/26 01:34:17;;;;;;;5.07;4.57;;;23.00;55.50;;;;;;5036757;28;20165;-81
2023/06/26 01:36:44;;;;;;;5.38;4.53;;;23.00;55.50;;;;;;5054049;28;20208;-82
2023/06/26 01:39:12;;;;;;;4.82;4.22;;;22.90;55.50;;;;;;5036438;28;20165;-81
2023/06/26 01:41:38;;;;;;;4.70;4.20;;;23.00;55.60;;;;;;5019575;28;20193;-82
2023/06/26 01:44:17;;;;;;;5.13;4.00;;;23.00;56.20;;;;;;5019605;28;20158;-82
2023/06/26 01:46:59;;;;;;;4.80;4.30;;;22.90;55.50;;;;;;5019599;28;20248;-82
2023/06/26 01:49:47;;;;;;;5.03;4.28;;;22.90;55.50;;;;;;5035940;28;20214;-80
2023/06/26 01:52:35;;;;;;;4.57;4.18;;;22.90;55.50;;;;;;5022576;28;20150;-80
2023/06/26 01:55:22;;;;;;;5.68;4.43;;;22.90;55.60;;;;;;5007951;28;20265;-82
2023/06/26 01:57:48;;;;;;;4.68;4.07;;;22.90;55.60;;;;;;5053836;28;20237;-81
2023/06/26 02:00:17;;;;;;;4.80;4.30;;;22.90;55.60;;;;;;5053667;28;20269;-81
2023/06/26 02:02:44;;;;;;;4.90;4.40;;;22.90;55.60;;;;;;5035830;28;20185;-82
2023/06/26 02:05:10;;;;;;;4.75;4.25;;;22.90;55.60;;;;;;5053863;28;20185;-83
2023/06/26 02:07:36;;;;;;;4.93;4.20;;;22.90;55.60;;;;;;5053674;28;20565;-81
2023/06/26 02:10:02;;;;;;;5.30;4.22;;;22.90;55.60;;;;;;5053472;28;20162;-83
2023/06/26 02:12:28;;;;;;;4.38;3.90;;;22.90;55.60;;;;;;5035651;28;20169;-82
2023/06/26 02:14:54;;;;;;;4.82;4.20;;;22.90;55.70;;;;;;5035281;28;20162;-82
2023/06/26 02:17:20;;;;;;;4.65;4.18;;;22.90;55.70;;;;;;5053362;28;20155;-82
2023/06/26 02:19:47;;;;;;;5.18;4.25;;;22.90;55.70;;;;;;5035380;28;20199;-81
2023/06/26 02:22:15;;;;;;;4.80;4.15;;;22.90;55.70;;;;;;5035815;28;20170;-82
2023/06/26 02:24:41;;;;;;;4.82;4.32;;;22.90;55.70;;;;;;5053289;28;20599;-82
2023/06/26 02:27:08;;;;;;;4.45;4.05;;;22.90;55.70;;;;;;5035569;28;20165;-81
2023/06/26 02:29:34;;;;;;;4.90;4.38;;;22.80;55.70;;;;;;5018738;28;20178;-81
2023/06/26 02:31:59;;;;;;;4.93;4.20;;;22.80;55.80;;;;;;5018795;28;20265;-82
2023/06/26 02:34:25;;;;;;;4.95;4.18;;;22.80;55.80;;;;;;5019168;28;20170;-81
2023/06/26 02:36:54;;;;;;;5.00;4.30;;;22.80;55.70;;;;;;5019193;28;20202;-81
2023/06/26 02:39:20;;;;;;;4.40;3.75;;;22.80;55.70;;;;;;5035691;28;20174;-80
2023/06/26 02:41:46;;;;;;;4.85;4.28;;;22.80;55.80;;;;;;5035421;28;20192;-81
2023/06/26 02:44:13;;;;;;;4.90;4.40;;;22.80;55.80;;;;;;5052998;28;20237;-81
2023/06/26 02:46:39;;;;;;;4.70;4.20;;;22.80;55.70;;;;;;5035446;28;20161;-80
2023/06/26 02:49:05;;;;;;;5.40;4.43;;;22.80;55.80;;;;;;5032684;28;20225;-82
2023/06/26 02:51:33;;;;;;;5.07;4.30;;;22.80;55.80;;;;;;5053001;28;20164;-80
2023/06/26 02:53:59;;;;;;;5.32;4.10;;;22.80;55.80;;;;;;5035404;28;20166;-82
2023/06/26 02:56:28;;;;;;;5.07;4.32;;;22.80;55.80;;;;;;5018654;28;20177;-81
2023/06/26 02:58:55;;;;;;;4.35;3.90;;;22.80;55.80;;;;;;5019593;28;20166;-80
2023/06/26 03:01:21;;;;;;;5.40;4.15;;;22.80;55.80;;;;;;5035361;28;20202;-82
2023/06/26 03:03:47;;;;;;;4.70;4.05;;;22.80;55.80;;;;;;5035291;28;20193;-82
2023/06/26 03:06:13;;;;;;;4.75;4.10;;;22.80;55.80;;;;;;5034942;28;20169;-83
2023/06/26 03:08:39;;;;;;;4.55;3.92;;;22.80;55.80;;;;;;5019068;28;20200;-80
2023/06/26 03:11:06;;;;;;;5.25;3.85;;;22.80;55.70;;;;;;5052730;28;20287;-81
2023/06/26 03:13:33;;;;;;;4.85;4.13;;;22.80;55.70;;;;;;5035206;28;20190;-81
2023/06/26 03:15:59;;;;;;;4.68;3.95;;;22.80;55.70;;;;;;5052860;28;20613;-80
2023/06/26 03:18:25;;;;;;;4.70;4.10;;;22.80;55.70;;;;;;5035035;28;20169;-80
2023/06/26 03:20:53;;;;;;;4.78;4.28;;;22.80;55.70;;;;;;5018261;28;20186;-81
2023/06/26 03:23:20;;;;;;;4.47;3.95;;;22.80;55.80;;;;;;5035133;28;20151;-82
2023/06/26 03:25:46;;;;;;;4.43;3.97;;;22.80;55.80;;;;;;5035715;28;20158;-81
2023/06/26 03:28:12;;;;;;;4.78;4.15;;;22.80;55.70;;;;;;5038814;28;20154;-80
2023/06/26 03:30:37;;;;;;;5.18;4.32;;;22.80;55.70;;;;;;5038483;28;20263;-80
2023/06/26 03:33:03;;;;;;;4.78;4.07;;;22.80;55.70;;;;;;5056414;28;20190;-80
2023/06/26 03:35:29;;;;;;;5.15;4.30;;;22.90;55.80;;;;;;5022006;28;20170;-83
2023/06/26 03:37:55;;;;;;;4.65;4.07;;;22.80;55.60;;;;;;5038435;28;20166;-82
2023/06/26 03:40:21;;;;;;;4.95;4.45;;;22.80;55.70;;;;;;5038394;28;20555;-80
2023/06/26 03:42:51;;;;;;;4.75;4.07;;;22.80;55.70;;;;;;5022962;28;20604;-81
2023/06/26 03:45:18;;;;;;;4.47;3.88;;;22.90;55.60;;;;;;5009056;28;20178;-81
2023/06/26 03:47:49;;;;;;;5.10;4.00;;;22.90;55.60;;;;;;5060138;28;20146;-81
2023/06/26 03:50:16;;;;;;;5.15;4.18;;;22.90;55.50;;;;;;4992506;28;20632;-81
2023/06/26 03:52:42;;;;;;;4.57;4.10;;;22.90;55.30;;;;;;5059888;28;20154;-81
2023/06/26 03:55:08;;;;;;;4.47;3.80;;;22.90;55.40;;;;;;5060000;28;20636;-81
2023/06/26 03:57:34;;;;;;;4.65;3.97;;;23.00;55.40;;;;;;5041559;28;20169;-81
2023/06/26 04:00:05;;;;;;;4.80;4.20;;;23.00;55.30;;;;;;5025057;28;20210;-81
2023/06/26 04:02:31;;;;;;;5.18;4.18;;;23.00;55.30;;;;;;5023002;28;20245;-82
2023/06/26 04:04:57;;;;;;;4.50;4.03;;;23.00;55.30;;;;;;5022456;28;20636;-82
2023/06/26 04:07:24;;;;;;;4.85;4.03;;;23.00;55.30;;;;;;5056904;28;20168;-82
2023/06/26 04:09:50;;;;;;;5.20;4.03;;;23.00;55.20;;;;;;5039281;28;20184;-82
2023/06/26 04:12:16;;;;;;;4.72;4.13;;;23.00;55.10;;;;;;5022246;28;20186;-82
2023/06/26 04:14:42;;;;;;;5.45;4.00;;;23.00;55.10;;;;;;5039159;28;20566;-82
2023/06/26 04:17:08;;;;;;;4.50;4.00;;;23.00;55.10;;;;;;5022445;28;20584;-82
2023/06/26 04:19:35;;;;;;;4.93;4.10;;;23.00;55.10;;;;;;5039203;28;20280;-81
2023/06/26 04:22:05;;;;;;;4.03;3.63;;;23.00;55.00;;;;;;5038521;28;20182;-81
2023/06/26 04:24:31;;;;;;;4.53;4.05;;;23.10;55.00;;;;;;4989304;28;20178;-82
2023/06/26 04:26:57;;;;;;;4.53;4.10;;;23.10;55.00;;;;;;5056715;28;20498;-81
2023/06/26 04:29:25;;;;;;;4.20;3.80;;;23.10;55.00;;;;;;5039033;28;20609;-81
2023/06/26 04:31:51;;;;;;;4.30;3.90;;;23.00;55.00;;;;;;5038668;28;20609;-81
2023/06/26 04:34:18;;;;;;;4.30;3.70;;;23.10;55.00;;;;;;5022140;28;20617;-81
2023/06/26 04:36:47;;;;;;;4.55;4.05;;;23.10;54.90;;;;;;5038619;28;20169;-81
2023/06/26 04:39:15;;;;;;;4.53;3.42;;;23.10;54.90;;;;;;5039306;28;20165;-83
2023/06/26 04:41:41;;;;;;;4.50;3.78;;;23.10;54.90;;;;;;5022029;28;20193;-81
2023/06/26 04:44:07;;;;;;;4.65;3.92;;;23.10;54.90;;;;;;5038610;28;20154;-81
2023/06/26 04:46:33;;;;;;;4.20;3.80;;;23.10;54.90;;;;;;5038655;28;20157;-81
2023/06/26 04:48:58;;;;;;;4.78;4.20;;;23.20;54.80;;;;;;5055414;28;20240;-81
2023/06/26 04:51:26;;;;;;;5.05;4.10;;;23.20;54.80;;;;;;5055987;28;20621;-81
2023/06/26 04:53:52;;;;;;;4.28;3.88;;;23.20;54.70;;;;;;5056277;28;20208;-81
2023/06/26 04:56:18;;;;;;;4.65;4.05;;;23.30;54.70;;;;;;5038071;28;20197;-81
2023/06/26 04:58:44;;;;;;;4.00;3.60;;;23.20;54.70;;;;;;5055660;28;20190;-81
2023/06/26 05:01:10;;;;;;;5.00;4.03;;;23.20;54.70;;;;;;5055314;28;20194;-81
2023/06/26 05:03:37;;;;;;;4.63;4.10;;;23.20;54.60;;;;;;5055425;28;20158;-81
2023/06/26 05:06:02;;;;;;;4.22;3.83;;;23.30;54.60;;;;;;5055482;28;20150;-82
2023/06/26 05:08:28;;;;;;;4.45;3.97;;;23.30;54.40;;;;;;5055638;28;20165;-82
2023/06/26 05:10:57;;;;;;;4.35;3.70;;;23.30;54.50;;;;;;5055265;28;20617;-82
2023/06/26 05:13:23;;;;;;;4.15;3.67;;;23.20;54.60;;;;;;5055528;28;20173;-82
2023/06/26 05:15:51;;;;;;;4.90;3.78;;;23.30;54.60;;;;;;5029761;28;20276;-82
2023/06/26 05:18:16;;;;;;;5.38;4.05;;;23.20;54.60;;;;;;5071624;28;20643;-82
2023/06/26 05:20:42;;;;;;;4.10;3.70;;;23.20;54.50;;;;;;5074888;28;20212;-81
2023/06/26 05:23:08;;;;;;;4.32;3.75;;;23.30;54.60;;;;;;5075143;28;20154;-81
2023/06/26 05:25:34;;;;;;;4.32;3.65;;;23.30;54.60;;;;;;5056253;28;20550;-82
2023/06/26 05:28:01;;;;;;;4.72;4.28;;;23.30;54.30;;;;;;5055497;28;20208;-81
2023/06/26 05:30:27;;;;;;;4.57;3.97;;;23.30;54.40;;;;;;5032336;28;20205;-82
2023/06/26 05:32:53;;;;;;;4.65;4.00;;;23.30;54.40;;;;;;5004075;28;20203;-83
2023/06/26 05:35:21;;;;;;;4.40;4.00;;;23.30;54.40;;;;;;5021101;28;20162;-82
2023/06/26 05:37:48;;;;;;;4.30;3.90;;;23.20;54.50;;;;;;5021347;28;20643;-81
2023/06/26 05:40:14;;;;;;;4.10;3.70;;;23.20;54.80;;;;;;5054595;28;20194;-81
2023/06/26 05:42:40;;;;;;;4.40;4.00;;;23.20;55.10;;;;;;5036538;28;20241;-82
2023/06/26 05:45:06;;;;;;;4.57;4.07;;;23.20;55.20;;;;;;5020654;28;20204;-82
2023/06/26 05:47:33;;;;;;;4.25;3.85;;;23.10;55.20;;;;;;5020464;28;20166;-83
2023/06/26 05:49:59;;;;;;;4.30;3.67;;;23.20;55.50;;;;;;5002060;28;20221;-82
2023/06/26 05:52:25;;;;;;;3.95;3.55;;;23.10;55.60;;;;;;5052688;28;20155;-82
2023/06/26 05:54:51;;;;;;;4.28;3.88;;;23.20;55.60;;;;;;5053204;28;20220;-83
2023/06/26 05:57:20;;;;;;;4.07;3.67;;;23.20;55.60;;;;;;5045948;28;20154;-82
2023/06/26 05:59:46;;;;;;;3.60;3.30;;;23.10;55.80;;;;;;5036139;28;20193;-83
2023/06/26 06:02:12;;;;;;;4.07;3.58;;;23.10;55.90;;;;;;5019352;28;20528;-83
2023/06/26 06:04:38;;;;;;;4.00;3.60;;;23.20;55.80;;;;;;5036033;28;20182;-82
2023/06/26 06:07:04;;;;;;;4.13;3.42;;;23.20;55.80;;;;;;5035977;28;20196;-82
2023/06/26 06:09:29;;;;;;;4.10;3.65;;;23.20;55.90;;;;;;5019340;28;20198;-83
2023/06/26 06:11:55;;;;;;;5.03;4.40;;;23.20;56.00;;;;;;5004002;28;20636;-83
2023/06/26 06:14:21;;;;;;;4.10;3.70;;;23.10;56.00;;;;;;5036003;28;20522;-82
2023/06/26 06:16:46;;;;;;;3.92;3.53;;;23.10;56.20;;;;;;5036183;28;20513;-82
2023/06/26 06:19:13;;;;;;;4.28;3.70;;;23.20;56.40;;;;;;5003623;28;20170;-82
2023/06/26 06:21:39;;;;;;;4.80;4.18;;;23.10;56.30;;;;;;5021176;28;20198;-82
2023/06/26 06:24:06;;;;;;;4.05;3.53;;;23.10;56.40;;;;;;5020672;28;20164;-81
2023/06/26 06:26:34;;;;;;;4.30;3.90;;;23.10;56.40;;;;;;5021427;28;20562;-84
2023/06/26 06:29:00;;;;;;;4.18;3.75;;;23.00;56.20;;;;;;5004494;28;20247;-85
2023/06/26 06:31:28;;;;;;;3.95;3.55;;;23.00;56.20;;;;;;5037041;28;20166;-84
2023/06/26 06:33:54;;;;;;;4.13;3.50;;;22.90;56.40;;;;;;5020008;28;20176;-85
2023/06/26 06:36:27;;;;;;;4.22;3.67;;;22.80;56.40;;;;;;5037673;28;20205;-86
2023/06/26 06:38:53;;;;;;;3.60;3.30;;;22.90;56.30;;;;;;5037698;28;20624;-85
2023/06/26 06:41:22;;;;;;;3.97;3.58;;;22.80;56.40;;;;;;5024385;28;20240;-84
2023/06/26 06:43:47;;;;;;;4.03;3.60;;;23.00;56.20;;;;;;5013940;28;20167;-83
2023/06/26 06:46:15;;;;;;;3.95;3.35;;;23.00;56.10;;;;;;5033553;28;20159;-82
2023/06/26 06:48:41;;;;;;;4.38;3.97;;;22.90;56.30;;;;;;5046736;28;20166;-82
2023/06/26 06:51:07;;;;;;;4.05;3.60;;;22.80;56.50;;;;;;5018283;28;20174;-82
2023/06/26 06:53:32;;;;;;;3.97;3.58;;;22.80;56.70;;;;;;5018456;28;20189;-83
2023/06/26 06:55:58;;;;;;;3.97;3.50;;;22.70;56.80;;;;;;5018267;28;20252;-82
2023/06/26 06:58:23;;;;;;;4.03;3.63;;;22.70;56.70;;;;;;5052756;28;20165;-82
2023/06/26 07:00:51;;;;;;;3.78;3.40;;;22.70;56.60;;;;;;5021241;28;20220;-82
2023/06/26 07:03:16;;;;;;;3.70;3.40;;;22.60;56.60;;;;;;5023137;28;20146;-83
2023/06/26 07:05:42;;;;;;;3.42;3.10;;;22.70;56.30;;;;;;5057129;28;20173;-82
2023/06/26 07:08:08;;;;;;;4.05;3.50;;;22.70;56.10;;;;;;5039681;28;20632;-82
2023/06/26 07:10:34;;;;;;;3.90;3.50;;;22.70;56.40;;;;;;5023317;28;20519;-83
2023/06/26 07:12:59;;;;;;;3.95;3.55;;;22.60;56.20;;;;;;5023638;28;20485;-82
2023/06/26 07:15:25;;;;;;;3.38;3.08;;;22.70;56.20;;;;;;5057147;28;20188;-83
2023/06/26 07:17:50;;;;;;;3.78;3.13;;;22.60;56.20;;;;;;5039380;28;20704;-82
2023/06/26 07:20:16;;;;;;;3.38;3.00;;;22.60;56.10;;;;;;5022678;28;20244;-82
2023/06/26 07:22:42;;;;;;;4.45;3.40;;;22.70;56.00;;;;;;5056775;28;20566;-82
2023/06/26 07:25:09;;;;;;;3.53;3.22;;;22.70;55.70;;;;;;5034865;28;20161;-82
2023/06/26 07:27:37;;;;;;;4.03;3.53;;;22.70;55.50;;;;;;5038072;28;20151;-82
2023/06/26 07:30:03;;;;;;;3.20;2.90;;;22.70;55.30;;;;;;5022805;28;20184;-82
2023/06/26 07:32:29;;;;;;;3.33;2.92;;;22.70;55.20;;;;;;5022892;28;20629;-82
2023/06/26 07:34:54;;;;;;;3.30;3.00;;;22.70;55.20;;;;;;5022418;28;20186;-81
2023/06/26 07:37:26;;;;;;;3.70;3.03;;;22.70;54.90;;;;;;5038973;28;20147;-82
2023/06/26 07:40:03;;;;;;;5.47;3.00;;;22.80;54.90;;;;;;4936940;29;20185;-83
2023/06/26 07:42:29;;;;;;;3.50;3.20;;;22.80;54.70;;;;;;4889743;29;20359;-82
2023/06/26 07:44:54;;;;;;;3.72;3.33;;;22.80;55.00;;;;;;4921303;29;20246;-84
2023/06/26 07:47:20;;;;;;;3.88;3.20;;;22.70;55.10;;;;;;4921036;29;20507;-83
2023/06/26 07:49:46;;;;;;;3.60;3.30;;;22.70;55.10;;;;;;4904877;29;20527;-82
2023/06/26 07:52:12;;;;;;;3.63;3.30;;;22.70;55.20;;;;;;4905315;29;20180;-82
2023/06/26 07:54:37;;;;;;;3.70;3.00;;;22.70;55.30;;;;;;4920874;29;20261;-82
2023/06/26 07:57:08;;;;;;;3.42;3.13;;;22.70;55.30;;;;;;4920952;29;20167;-83
2023/06/26 07:59:34;;;;;;;3.85;3.28;;;22.70;55.20;;;;;;4921212;29;20190;-82
2023/06/26 08:02:01;;;;;;;3.75;3.08;;;22.70;55.10;;;;;;4905441;29;20277;-82
2023/06/26 08:04:27;;;;;;;3.40;3.10;;;22.70;55.10;;;;;;4905150;29;20166;-81
2023/06/26 08:06:54;;;;;;;3.45;3.10;;;22.70;55.00;;;;;;4889482;29;20661;-82
2023/06/26 08:09:21;;;;;;;3.97;3.30;;;22.70;55.00;;;;;;4905038;29;20166;-81
2023/06/26 08:11:47;;;;;;;3.33;3.03;;;22.70;55.00;;;;;;5026312;28;20526;-81
2023/06/26 08:14:12;;;;;;;3.20;2.90;;;22.70;54.90;;;;;;5021197;28;20169;-81
2023/06/26 08:16:40;;;;;;;2.95;2.65;;;22.80;55.00;;;;;;5021742;28;20158;-81
2023/06/26 08:19:05;;;;;;;4.25;3.15;;;22.80;54.80;;;;;;5021292;28;20245;-82
2023/06/26 08:21:31;;;;;;;3.30;3.00;;;22.70;54.60;;;;;;5037851;28;20260;-82
2023/06/26 08:23:57;;;;;;;4.20;3.00;;;22.80;55.40;;;;;;5021612;28;20158;-82
2023/06/26 08:26:22;;;;;;;4.30;2.80;;;22.80;54.60;;;;;;5021390;28;20617;-81
2023/06/26 08:28:48;;;;;;;3.50;3.13;;;22.80;54.60;;;;;;5011176;28;20167;-82
2023/06/26 08:31:14;;;;;;;4.10;2.85;;;22.80;54.60;;;;;;5018020;28;20163;-81
2023/06/26 08:33:39;;;;;;;3.40;2.90;;;22.80;54.60;;;;;;5017984;28;20194;-81
2023/06/26 08:36:05;;;;;;;4.38;2.75;;;22.90;54.40;;;;;;5035426;28;20159;-80
2023/06/26 08:38:30;;;;;;;3.75;3.25;;;22.90;54.10;;;;;;5018185;28;20170;-81
2023/06/26 08:40:56;;;;;;;3.38;2.90;;;23.00;54.10;;;;;;5017895;28;20236;-81
2023/06/26 08:43:22;;;;;;;3.40;3.10;;;23.00;54.00;;;;;;5017771;28;20640;-82
2023/06/26 08:45:52;;;;;;;4.18;2.97;;;23.00;53.90;;;;;;5018134;28;20646;-82
2023/06/26 08:48:18;;;;;;;5.22;2.90;;;23.10;53.80;;;;;;5002651;28;20147;-82
2023/06/26 08:50:44;;;;;;;3.15;2.85;;;23.10;53.70;;;;;;5018514;28;20225;-83
2023/06/26 08:53:31;;;;;;;2.97;2.58;;;23.10;53.90;;;;;;5003161;28;20178;-83
2023/06/26 08:55:57;;;;;;;4.18;2.90;;;23.20;53.50;;;;;;5035569;28;20178;-83
2023/06/26 08:58:23;;;;;;;3.58;2.85;;;23.20;53.60;;;;;;5003501;28;20185;-82
2023/06/26 09:00:49;;;;;;;3.33;2.92;;;23.10;53.70;;;;;;5036856;28;20197;-84
2023/06/26 09:03:15;;;;;;;3.95;3.20;;;23.10;53.90;;;;;;5020491;28;20220;-82
2023/06/26 09:05:41;;;;;;;4.05;2.97;;;23.10;54.00;;;;;;5020870;28;20263;-83
2023/06/26 09:08:07;;;;;;;3.20;2.90;;;23.00;53.90;;;;;;5020742;28;20612;-83
2023/06/26 09:10:33;;;;;;;3.00;2.70;;;23.10;53.90;;;;;;5037977;28;20237;-82
2023/06/26 09:12:58;;;;;;;3.38;2.70;;;23.20;53.70;;;;;;5021030;28;20209;-82
2023/06/26 09:15:24;;;;;;;3.00;2.70;;;23.20;53.60;;;;;;5037572;28;20180;-83
2023/06/26 09:17:50;;;;;;;3.40;2.80;;;23.20;53.60;;;;;;5020738;28;20252;-83
2023/06/26 09:20:16;;;;;;;3.20;2.72;;;23.20;53.60;;;;;;5020464;28;20204;-83
2023/06/26 09:22:42;;;;;;;2.72;2.50;;;23.20;53.50;;;;;;5020665;28;20166;-83
2023/06/26 09:25:08;;;;;;;2.95;2.63;;;23.20;53.40;;;;;;5019920;28;20166;-83
2023/06/26 09:27:35;;;;;;;3.55;2.65;;;23.20;53.30;;;;;;5019977;28;20513;-83
2023/06/26 09:30:03;;;;;;;4.80;2.97;;;23.20;53.40;;;;;;5003722;28;20577;-83
2023/06/26 09:32:29;;;;;;;3.17;2.80;;;23.20;53.50;;;;;;5020105;28;20517;-83
2023/06/26 09:34:55;;;;;;;2.80;2.60;;;23.10;53.60;;;;;;5019918;28;20155;-84
2023/06/26 09:37:22;;;;;;;3.05;2.53;;;23.10;53.80;;;;;;5036434;28;20706;-83
2023/06/26 09:39:48;;;;;;;4.78;2.70;;;23.10;53.80;;;;;;5020145;28;20157;-83
2023/06/26 09:42:14;;;;;;;3.10;2.60;;;23.10;53.80;;;;;;5004068;28;20193;-83
2023/06/26 09:44:45;;;;;;;3.13;2.60;;;23.10;53.70;;;;;;5003659;28;20668;-83
2023/06/26 09:47:10;;;;;;;3.20;2.58;;;23.00;53.70;;;;;;5036250;28;20165;-82
2023/06/26 09:49:36;;;;;;;2.80;2.50;;;23.10;53.50;;;;;;5019821;28;20213;-83
2023/06/26 09:52:02;;;;;;;2.75;2.40;;;23.10;53.30;;;;;;5019913;28;20217;-82
2023/06/26 09:54:31;;;;;;;4.22;2.45;;;23.10;53.30;;;;;;5036161;28;20163;-84
2023/06/26 09:57:08;;;;;;;2.83;2.53;;;23.10;53.50;;;;;;5020278;28;20170;-83
2023/06/26 09:59:34;;;;;;;3.03;2.65;;;23.10;53.50;;;;;;5035624;28;20173;-83
2023/06/26 10:02:00;;;;;;;2.90;2.60;;;23.10;53.40;;;;;;5035690;28;20664;-84
2023/06/26 10:04:26;;;;;;;2.47;2.28;;;23.10;53.40;;;;;;5019407;28;20181;-83
2023/06/26 10:06:53;;;;;;;2.63;2.42;;;23.10;53.50;;;;;;5019830;28;20151;-84
2023/06/26 10:09:42;;;;;;;2.90;2.60;;;23.10;53.50;;;;;;5004353;28;20276;-86
2023/06/26 10:12:20;;;;;;;3.00;2.70;;;23.10;53.50;;;;;;5048465;28;20170;-82
2023/06/26 10:14:46;;;;;;;2.65;2.45;;;23.10;53.40;;;;;;5026089;28;20191;-86
2023/06/26 10:17:14;;;;;;;3.05;2.75;;;23.20;53.40;;;;;;5041041;28;20241;-82
2023/06/26 10:19:43;;;;;;;2.83;2.58;;;23.20;53.40;;;;;;5012585;28;20628;-84
2023/06/26 10:22:11;;;;;;;3.45;2.70;;;23.20;53.50;;;;;;5011316;28;20189;-85
2023/06/26 10:24:38;;;;;;;3.00;2.50;;;23.20;53.50;;;;;;5039979;28;20178;-85
2023/06/26 10:27:08;;;;;;;2.88;2.63;;;23.10;53.50;;;;;;5022978;28;20161;-87
2023/06/26 10:29:55;;;;;;;2.90;2.60;;;23.20;53.60;;;;;;5006731;28;20628;-86
2023/06/26 10:32:24;;;;;;;3.33;2.50;;;23.20;53.50;;;;;;5020174;28;20667;-87
2023/06/26 10:34:52;;;;;;;2.75;2.50;;;23.20;53.60;;;;;;5023817;28;20208;-87
2023/06/26 10:37:46;;;;;;;2.75;2.45;;;23.20;53.60;;;;;;5008008;28;20682;-88
2023/06/26 10:40:13;;;;;;;3.35;2.38;;;23.20;53.70;;;;;;4993919;28;20249;-86
2023/06/26 10:42:44;;;;;;;2.60;2.40;;;23.20;53.70;;;;;;5022875;28;20617;-87
2023/06/26 10:45:28;;;;;;;2.50;2.30;;;23.20;53.80;;;;;;5022502;28;20169;-88
2023/06/26 10:51:40;;;;;;;3.17;2.55;;;23.20;53.70;;;;;;4919750;29;20188;-88
2023/06/26 10:54:38;;;;;;;2.55;2.25;;;23.30;53.70;;;;;;4931526;29;20195;-86
2023/06/26 10:57:23;;;;;;;2.60;2.40;;;23.30;53.70;;;;;;4926378;29;20660;-88
2023/06/26 11:00:15;;;;;;;2.47;2.28;;;23.30;53.50;;;;;;4924656;29;20182;-83
2023/06/26 11:03:13;;;;;;;2.42;2.22;;;23.30;53.60;;;;;;4956099;29;20189;-86
2023/06/26 11:06:09;;;;;;;2.90;2.60;;;23.30;53.70;;;;;;4896731;29;20185;-86
2023/06/26 11:08:51;;;;;;;2.83;2.63;;;23.30;53.70;;;;;;4961425;29;20181;-85
2023/06/26 11:11:17;;;;;;;2.42;2.20;;;23.30;54.00;;;;;;4939202;29;20697;-86
2023/06/26 11:13:44;;;;;;;2.88;2.65;;;23.30;54.10;;;;;;4972135;28;20228;-84
2023/06/26 11:16:11;;;;;;;2.75;2.47;;;23.30;54.10;;;;;;4956749;28;20551;-85
2023/06/26 11:18:36;;;;;;;2.72;2.40;;;23.30;54.10;;;;;;4958208;28;20224;-85
2023/06/26 11:21:13;;;;;;;2.30;2.10;;;23.40;54.20;;;;;;4965671;28;20642;-87
2023/06/26 11:23:40;;;;;;;2.75;2.55;;;23.40;54.10;;;;;;4954083;29;20160;-86
2023/06/26 11:26:23;;;;;;;2.47;2.28;;;23.40;54.10;;;;;;4964165;28;20181;-87
2023/06/26 11:28:54;;;;;;;2.55;2.35;;;23.40;54.00;;;;;;5039142;28;20193;-87
2023/06/26 11:31:30;;;;;;;2.72;2.53;;;23.40;54.00;;;;;;5022976;28;20187;-88
2023/06/26 11:33:56;;;;;;;2.50;2.30;;;23.40;54.80;;;;;;5039445;28;20149;-87
2023/06/26 11:36:24;;;;;;;2.67;2.40;;;23.40;54.10;;;;;;5038963;28;20181;-87
2023/06/26 11:38:58;;;;;;;2.60;2.40;;;23.40;54.40;;;;;;5040686;28;20245;-87
2023/06/26 11:41:28;;;;;;;2.20;2.00;;;23.40;55.00;;;;;;5022740;28;20276;-86
2023/06/26 11:43:54;;;;;;;2.35;2.15;;;23.40;54.40;;;;;;5039807;28;20608;-87
2023/06/26 11:46:21;;;;;;;2.88;2.50;;;23.30;54.50;;;;;;5023526;28;20235;-87
2023/06/26 11:48:48;;;;;;;2.47;2.20;;;23.40;54.50;;;;;;5042471;28;20169;-88
2023/06/26 11:51:14;;;;;;;2.50;2.30;;;23.40;54.60;;;;;;5027532;28;20181;-87
2023/06/26 11:53:41;;;;;;;2.75;2.50;;;23.40;54.60;;;;;;5026722;28;20177;-86
2023/06/26 11:56:12;;;;;;;2.58;2.38;;;23.40;54.80;;;;;;5043162;28;20233;-87
2023/06/26 11:59:00;;;;;;;2.47;2.25;;;23.40;54.80;;;;;;5043223;28;20158;-87
2023/06/26 12:01:36;;;;;;;2.58;2.30;;;23.40;54.90;;;;;;5027306;28;20272;-86
2023/06/26 12:04:03;;;;;;;2.97;2.35;;;23.40;55.00;;;;;;5027554;28;20176;-86
2023/06/26 12:06:37;;;;;;;2.70;2.50;;;23.40;55.10;;;;;;5041872;28;20162;-88
2023/06/26 12:09:05;;;;;;;2.40;2.20;;;23.40;55.10;;;;;;5058518;28;20634;-87
2023/06/26 12:11:34;;;;;;;2.50;2.30;;;23.40;55.20;;;;;;5042439;28;20169;-86
2023/06/26 12:14:00;;;;;;;2.50;2.30;;;23.40;55.10;;;;;;5042017;28;20176;-88
2023/06/26 12:16:30;;;;;;;2.42;2.22;;;23.40;55.30;;;;;;5042340;28;20245;-87
2023/06/26 12:19:03;;;;;;;2.42;2.22;;;23.40;55.30;;;;;;5025073;28;20197;-87
2023/06/26 12:21:45;;;;;;;2.50;2.13;;;23.40;55.30;;;;;;5058157;28;20228;-86
2023/06/26 12:24:15;;;;;;;3.25;2.10;;;23.50;55.30;;;;;;5059359;28;20156;-88
2023/06/26 12:26:45;;;;;;;2.70;2.38;;;23.40;55.30;;;;;;5025768;28;20165;-86
2023/06/26 12:29:13;;;;;;;2.45;2.25;;;23.50;55.40;;;;;;5041702;28;20149;-87
2023/06/26 12:31:43;;;;;;;2.30;2.10;;;23.40;55.30;;;;;;5025995;28;20182;-86
2023/06/26 12:34:11;;;;;;;2.38;2.15;;;23.50;55.40;;;;;;5042441;28;20154;-86
2023/06/26 12:36:44;;;;;;;2.22;2.03;;;23.50;55.30;;;;;;5025610;28;20165;-87
2023/06/26 12:39:12;;;;;;;2.70;1.98;;;23.50;55.40;;;;;;5043012;28;20195;-86
2023/06/26 12:41:48;;;;;;;2.28;2.08;;;23.50;55.30;;;;;;5061417;28;20212;-87
2023/06/26 12:44:24;;;;;;;2.75;2.45;;;23.50;55.30;;;;;;5044010;28;20248;-86
2023/06/26 12:46:56;;;;;;;2.60;2.40;;;23.50;55.30;;;;;;5042770;28;20615;-86
2023/06/26 12:49:31;;;;;;;2.40;2.20;;;23.50;55.30;;;;;;5022973;28;20225;-87
2023/06/26 12:51:57;;;;;;;2.20;2.00;;;23.40;55.10;;;;;;5016932;28;20207;-86
2023/06/26 12:54:23;;;;;;;2.17;1.98;;;23.50;55.10;;;;;;5039577;28;20219;-87
2023/06/26 12:56:50;;;;;;;2.63;2.20;;;23.50;55.10;;;;;;5023174;28;20174;-87